Time,TemperatureF,DewpointF,PressureIn,WindDirection,WindDirectionDegrees,WindSpeedMPH,WindSpeedGustMPH,Humidity,HourlyPrecipIn,Conditions,Clouds,dailyrainin,SolarRadiationWatts/m^2,SoftwareType,DateUTC
2013-04-14 05:14:00,59.0,57.3,29.70,NNE,28,0.0,0.0,94,0.00,,,0.00,0,Wunderground v.1.15,2013-04-13 19:14:00,
2013-04-14 05:19:00,58.9,57.2,29.70,NNE,27,0.0,0.0,94,0.00,,,0.00,0,Wunderground v.1.15,2013-04-13 19:19:00,
2013-04-14 05:24:00,58.9,57.2,29.71,NNE,28,0.0,0.0,94,0.00,,,0.00,0,Wunderground v.1.15,2013-04-13 19:24:00,
2013-04-14 05:29:00,58.9,57.2,29.71,NNE,19,0.0,0.0,94,0.00,,,0.00,0,Wunderground v.1.15,2013-04-13 19:29:00,
2013-04-14 05:34:00,59.0,57.3,29.71,NNE,19,0.0,1.0,94,0.00,,,0.00,0,Wunderground v.1.15,2013-04-13 19:34:00,
2013-04-14 05:39:00,59.1,57.4,29.71,NNE,19,1.0,1.0,94,0.00,,,0.00,0,Wunderground v.1.15,2013-04-13 19:39:00,
2013-04-14 05:49:00,59.2,57.5,29.71,NNE,21,1.0,2.0,94,0.00,,,0.00,0,Wunderground v.1.15,2013-04-13 19:49:00,
2013-04-14 05:54:00,59.2,57.5,29.71,NNE,27,2.0,2.0,94,0.00,,,0.00,0,Wunderground v.1.15,2013-04-13 19:54:00,
2013-04-14 05:59:00,59.3,57.6,29.71,NNE,28,2.0,2.0,94,0.00,,,0.00,0,Wunderground v.1.15,2013-04-13 19:59:00,
2013-04-14 06:09:00,59.1,57.4,29.71,NNE,30,1.0,2.0,94,0.00,,,0.00,0,Wunderground v.1.15,2013-04-13 20:09:00,
2013-04-14 06:14:00,59.2,57.5,29.71,NNE,22,1.0,1.0,94,0.00,,,0.00,11,Wunderground v.1.15,2013-04-13 20:14:00,
2013-04-14 06:24:00,59.6,58.2,29.71,NNE,17,1.0,1.0,95,0.00,,,0.00,18,Wunderground v.1.15,2013-04-13 20:24:00,
2013-04-14 06:29:00,59.7,58.0,29.71,NE,42,1.0,2.0,94,0.00,,,0.00,19,Wunderground v.1.15,2013-04-13 20:29:00,
2013-04-14 06:34:00,59.7,58.0,29.71,NE,53,2.0,2.0,94,0.00,,,0.00,19,Wunderground v.1.15,2013-04-13 20:34:00,
2013-04-14 06:44:00,59.8,58.1,29.71,NE,36,1.0,1.0,94,0.00,,,0.00,19,Wunderground v.1.15,2013-04-13 20:44:00,
2013-04-14 06:49:00,59.9,58.2,29.71,NE,43,1.0,1.0,94,0.00,,,0.00,21,Wunderground v.1.15,2013-04-13 20:49:00,
2013-04-14 06:54:00,60.0,58.3,29.71,NE,36,1.0,4.0,94,0.00,,,0.00,21,Wunderground v.1.15,2013-04-13 20:54:00,
2013-04-14 07:04:00,60.2,58.5,29.72,North,9,1.0,1.0,94,0.00,,,0.00,21,Wunderground v.1.15,2013-04-13 21:04:00,
2013-04-14 07:14:00,60.3,58.6,29.72,North,9,1.0,1.0,94,0.00,,,0.00,84,Wunderground v.1.15,2013-04-13 21:14:00,
2013-04-14 07:19:00,60.5,58.8,29.72,NNE,17,1.0,2.0,94,0.00,,,0.00,179,Wunderground v.1.15,2013-04-13 21:19:00,
2013-04-14 07:24:00,61.2,59.8,29.72,North,5,1.0,1.0,95,0.00,,,0.00,199,Wunderground v.1.15,2013-04-13 21:24:00,
2013-04-14 07:29:00,61.8,60.4,29.72,North,5,1.0,2.0,95,0.00,,,0.00,216,Wunderground v.1.15,2013-04-13 21:29:00,
2013-04-14 07:39:00,62.7,60.9,29.72,North,10,0.0,3.0,94,0.00,,,0.00,246,Wunderground v.1.15,2013-04-13 21:39:00,
2013-04-14 07:44:00,63.3,61.2,29.72,North,9,1.0,2.0,93,0.00,,,0.00,265,Wunderground v.1.15,2013-04-13 21:44:00,
2013-04-14 07:49:00,63.8,61.4,29.72,NNW,338,1.0,2.0,92,0.00,,,0.00,209,Wunderground v.1.15,2013-04-13 21:49:00,
2013-04-14 07:59:00,64.8,61.8,29.73,NNW,344,1.0,2.0,90,0.00,,,0.00,309,Wunderground v.1.15,2013-04-13 21:59:00,
2013-04-14 08:09:00,65.7,61.7,29.72,North,350,1.0,3.0,87,0.00,,,0.00,341,Wunderground v.1.15,2013-04-13 22:09:00,
2013-04-14 08:14:00,66.8,61.8,29.72,NNW,339,1.0,2.0,84,0.00,,,0.00,359,Wunderground v.1.15,2013-04-13 22:14:00,
2013-04-14 08:19:00,67.9,62.2,29.72,NNW,344,1.0,2.0,82,0.00,,,0.00,376,Wunderground v.1.15,2013-04-13 22:19:00,
2013-04-14 08:24:00,67.8,62.1,29.72,NNW,327,1.0,2.0,82,0.00,,,0.00,392,Wunderground v.1.15,2013-04-13 22:24:00,
2013-04-14 08:34:00,68.5,62.1,29.72,North,350,2.0,2.0,80,0.00,,,0.00,425,Wunderground v.1.15,2013-04-13 22:34:00,
2013-04-14 08:39:00,69.9,62.7,29.72,NW,321,1.0,3.0,78,0.00,,,0.00,374,Wunderground v.1.15,2013-04-13 22:39:00,
2013-04-14 08:44:00,70.2,62.6,29.72,North,360,2.0,2.0,77,0.00,,,0.00,455,Wunderground v.1.15,2013-04-13 22:44:00,
2013-04-14 08:49:00,70.5,62.9,29.72,NW,321,1.0,2.0,77,0.00,,,0.00,475,Wunderground v.1.15,2013-04-13 22:49:00,
2013-04-14 08:59:00,71.4,62.7,29.72,NNW,336,1.0,1.0,74,0.00,,,0.00,383,Wunderground v.1.15,2013-04-13 22:59:00,
2013-04-14 09:04:00,71.4,63.1,29.72,NNW,337,1.0,1.0,75,0.00,,,0.00,561,Wunderground v.1.15,2013-04-13 23:04:00,
2013-04-14 09:14:00,72.2,62.7,29.72,NNW,348,1.0,1.0,72,0.00,,,0.00,580,Wunderground v.1.15,2013-04-13 23:14:00,
2013-04-14 09:19:00,73.1,62.7,29.72,NNW,348,1.0,1.0,70,0.00,,,0.00,555,Wunderground v.1.15,2013-04-13 23:19:00,
2013-04-14 09:24:00,73.2,62.8,29.72,NW,316,1.0,2.0,70,0.00,,,0.00,584,Wunderground v.1.15,2013-04-13 23:24:00,
2013-04-14 09:29:00,72.3,62.4,29.71,WNW,293,1.0,2.0,71,0.00,,,0.00,555,Wunderground v.1.15,2013-04-13 23:29:00,
2013-04-14 09:39:00,74.4,63.1,29.71,NW,317,1.0,1.0,68,0.00,,,0.00,605,Wunderground v.1.15,2013-04-13 23:39:00,
2013-04-14 09:44:00,75.3,63.6,29.71,NNW,327,1.0,2.0,67,0.00,,,0.00,615,Wunderground v.1.15,2013-04-13 23:44:00,
2013-04-14 09:49:00,74.9,62.8,29.71,NW,305,1.0,3.0,66,0.00,,,0.00,624,Wunderground v.1.15,2013-04-13 23:49:00,
2013-04-14 09:59:00,75.5,63.8,29.71,NW,311,1.0,1.0,67,0.00,,,0.00,635,Wunderground v.1.15,2013-04-13 23:59:00,
2013-04-14 10:04:00,76.9,63.3,29.71,NW,319,1.0,1.0,63,0.00,,,0.00,642,Wunderground v.1.15,2013-04-14 00:04:00,
2013-04-14 10:14:00,75.6,62.1,29.71,NW,315,1.0,1.0,63,0.00,,,0.00,661,Wunderground v.1.15,2013-04-14 00:14:00,
2013-04-14 10:19:00,77.0,63.0,29.71,NW,313,1.0,1.0,62,0.00,,,0.00,671,Wunderground v.1.15,2013-04-14 00:19:00,
2013-04-14 20:19:00,68.2,61.8,29.66,NNE,22,1.0,2.0,80,0.00,,,0.00,0,Wunderground v.1.15,2013-04-14 10:19:00,
2013-04-14 20:24:00,68.0,61.6,29.66,NNE,23,2.0,2.0,80,0.00,,,0.00,0,Wunderground v.1.15,2013-04-14 10:24:00,
2013-04-14 20:29:00,67.8,61.8,29.66,North,355,1.0,1.0,81,0.00,,,0.00,0,Wunderground v.1.15,2013-04-14 10:29:00,
2013-04-14 20:39:00,67.3,61.6,29.66,NNW,342,0.0,1.0,82,0.00,,,0.00,0,Wunderground v.1.15,2013-04-14 10:39:00,